Time;durP1;ratioP1;P1;durP2;ratioP2;P2;SDS_P1;SDS_P2;PMS_P1;PMS_P2;Temp;Humidity;BMP_temperature;BMP_pressure;BME280_temperature;BME280_humidity;BME280_pressure;Samples;Min_cycle;Max_cycle;Signal;HPM_P1;HPM_P2
2022/06/18 00:00:32;;;;;;;3.53;3.22;;;;;;;;;;5005828;28;20028;-68
2022/06/18 00:02:58;;;;;;;3.53;3.25;;;;;;;;;;5000724;28;20451;-69
2022/06/18 00:05:23;;;;;;;3.83;3.47;;;;;;;;;;4984261;28;20038;-68
2022/06/18 00:07:50;;;;;;;5.15;3.03;;;;;;;;;;5005554;28;20037;-68
2022/06/18 00:10:17;;;;;;;3.47;3.17;;;;;;;;;;5008605;28;20484;-68
2022/06/18 00:15:31;;;;;;;3.58;3.30;;;;;;;;;;5002372;28;20040;-69
2022/06/18 00:17:56;;;;;;;4.32;4.03;;;;;;;;;;5001420;28;20026;-69
2022/06/18 00:20:23;;;;;;;3.53;3.22;;;;;;;;;;5001660;28;20030;-69
2022/06/18 00:22:49;;;;;;;4.20;3.85;;;;;;;;;;5002343;28;20069;-69
2022/06/18 00:25:16;;;;;;;3.78;3.47;;;;;;;;;;5003573;28;20041;-68
2022/06/18 00:27:42;;;;;;;3.38;3.17;;;;;;;;;;5007887;28;20293;-68
2022/06/18 00:30:10;;;;;;;3.53;3.22;;;;;;;;;;5006796;28;20041;-68
2022/06/18 00:32:35;;;;;;;4.78;3.70;;;;;;;;;;5001818;28;20030;-68
2022/06/18 00:35:00;;;;;;;3.75;3.42;;;;;;;;;;5003663;28;20486;-70
2022/06/18 00:37:26;;;;;;;3.70;3.35;;;;;;;;;;5008609;28;20231;-70
2022/06/18 00:39:51;;;;;;;4.95;3.47;;;;;;;;;;5006919;28;20068;-68
2022/06/18 00:42:26;;;;;;;4.10;3.75;;;;;;;;;;5000286;28;20491;-68
2022/06/18 00:44:54;;;;;;;4.03;3.72;;;;;;;;;;5004870;28;20054;-70
2022/06/18 00:47:19;;;;;;;3.58;3.38;;;;;;;;;;5008489;28;20058;-70
2022/06/18 00:49:51;;;;;;;3.63;3.33;;;;;;;;;;5005907;28;20109;-68
2022/06/18 00:52:25;;;;;;;3.90;3.60;;;;;;;;;;5000793;28;20224;-68
2022/06/18 00:55:00;;;;;;;3.78;3.47;;;;;;;;;;5006010;28;20083;-68
2022/06/18 00:57:37;;;;;;;3.78;3.47;;;;;;;;;;5008400;28;20036;-68
2022/06/18 01:00:07;;;;;;;4.05;3.58;;;;;;;;;;5002428;28;20080;-69
2022/06/18 01:02:37;;;;;;;3.65;3.42;;;;;;;;;;5001085;28;20441;-71
2022/06/18 01:05:13;;;;;;;3.75;3.45;;;;;;;;;;5005485;28;20049;-69
2022/06/18 01:07:39;;;;;;;3.70;3.40;;;;;;;;;;5007250;28;20466;-69
2022/06/18 01:10:06;;;;;;;3.70;3.40;;;;;;;;;;4983137;28;20026;-70
2022/06/18 01:12:31;;;;;;;3.58;3.38;;;;;;;;;;5002256;28;20025;-70
2022/06/18 01:15:00;;;;;;;3.40;3.20;;;;;;;;;;5007928;28;20041;-70
2022/06/18 01:17:25;;;;;;;3.17;2.97;;;;;;;;;;5006635;28;20030;-71
2022/06/18 01:19:51;;;;;;;3.50;3.20;;;;;;;;;;5001397;28;20030;-70
2022/06/18 01:22:28;;;;;;;3.80;3.50;;;;;;;;;;5002942;28;20053;-70
2022/06/18 01:24:55;;;;;;;4.25;3.95;;;;;;;;;;5001588;28;20033;-70
2022/06/18 01:27:21;;;;;;;3.40;3.20;;;;;;;;;;5000760;28;20365;-70
2022/06/18 01:29:46;;;;;;;3.75;3.55;;;;;;;;;;4983041;28;20674;-68
2022/06/18 01:32:12;;;;;;;3.90;3.55;;;;;;;;;;5001925;28;20014;-68
2022/06/18 01:34:38;;;;;;;4.25;3.90;;;;;;;;;;4984137;28;20476;-68
2022/06/18 01:37:04;;;;;;;4.00;3.67;;;;;;;;;;5001411;28;20037;-68
2022/06/18 01:39:31;;;;;;;4.10;3.80;;;;;;;;;;4999092;28;20084;-68
2022/06/18 01:42:00;;;;;;;4.30;3.90;;;;;;;;;;5005560;28;20072;-67
2022/06/18 01:44:32;;;;;;;4.25;3.95;;;;;;;;;;4999733;28;20571;-70
2022/06/18 01:47:03;;;;;;;3.75;3.45;;;;;;;;;;5000841;28;20057;-69
2022/06/18 01:49:32;;;;;;;6.07;3.75;;;;;;;;;;4998173;28;20034;-68
2022/06/18 01:52:00;;;;;;;4.47;3.75;;;;;;;;;;5006358;28;20543;-68
2022/06/18 01:54:27;;;;;;;4.30;3.97;;;;;;;;;;5004725;28;20470;-68
2022/06/18 01:56:56;;;;;;;4.18;3.78;;;;;;;;;;5000484;28;20030;-69
2022/06/18 01:59:27;;;;;;;4.18;3.88;;;;;;;;;;4999806;28;20064;-68
2022/06/18 02:01:52;;;;;;;3.67;3.47;;;;;;;;;;5002093;28;20095;-68
2022/06/18 02:04:19;;;;;;;3.88;3.58;;;;;;;;;;5004965;28;20030;-70
2022/06/18 02:06:45;;;;;;;4.03;3.72;;;;;;;;;;4999998;28;20030;-68
2022/06/18 02:09:25;;;;;;;3.67;3.40;;;;;;;;;;4999989;28;20472;-68
2022/06/18 02:11:51;;;;;;;4.35;4.05;;;;;;;;;;4999835;28;20040;-69
2022/06/18 02:14:17;;;;;;;4.35;3.70;;;;;;;;;;4999935;28;20129;-70
2022/06/18 02:16:44;;;;;;;4.20;3.80;;;;;;;;;;5002275;28;20365;-69
2022/06/18 02:19:09;;;;;;;3.67;3.42;;;;;;;;;;5001587;28;20479;-71
2022/06/18 02:21:38;;;;;;;3.80;3.60;;;;;;;;;;4999593;28;20553;-69
2022/06/18 02:24:04;;;;;;;3.90;3.70;;;;;;;;;;4999787;28;20083;-69
2022/06/18 02:26:29;;;;;;;3.53;3.10;;;;;;;;;;5003980;28;20025;-68
2022/06/18 02:28:55;;;;;;;3.83;3.53;;;;;;;;;;5006279;28;20029;-68
2022/06/18 02:31:21;;;;;;;4.57;3.65;;;;;;;;;;5003075;28;20438;-70
2022/06/18 02:33:54;;;;;;;4.10;3.80;;;;;;;;;;4999526;28;20397;-71
2022/06/18 02:36:23;;;;;;;4.03;3.72;;;;;;;;;;5004737;28;20060;-69
2022/06/18 02:38:49;;;;;;;4.10;3.63;;;;;;;;;;5005784;28;20030;-69
2022/06/18 02:41:14;;;;;;;4.47;4.10;;;;;;;;;;5002909;28;20609;-70
2022/06/18 02:43:41;;;;;;;4.63;4.22;;;;;;;;;;4999606;28;20046;-69
2022/06/18 02:46:06;;;;;;;4.13;3.83;;;;;;;;;;5005669;28;20128;-69
2022/06/18 02:48:32;;;;;;;5.60;4.35;;;;;;;;;;5006961;28;20120;-69
2022/06/18 02:50:58;;;;;;;4.55;4.25;;;;;;;;;;5001540;28;20140;-69
2022/06/18 02:53:24;;;;;;;4.28;3.88;;;;;;;;;;4999320;28;20480;-70
2022/06/18 02:55:52;;;;;;;4.57;4.18;;;;;;;;;;5006598;28;20072;-68
2022/06/18 02:58:22;;;;;;;4.20;4.00;;;;;;;;;;5006196;28;20144;-69
2022/06/18 03:00:51;;;;;;;4.28;3.97;;;;;;;;;;4998915;28;20446;-69
2022/06/18 03:03:17;;;;;;;4.28;3.97;;;;;;;;;;4999747;28;20387;-69
2022/06/18 03:05:43;;;;;;;4.28;3.90;;;;;;;;;;5005730;28;20407;-70
2022/06/18 03:08:08;;;;;;;4.75;4.20;;;;;;;;;;5004618;28;20049;-69
2022/06/18 03:13:18;;;;;;;4.13;3.83;;;;;;;;;;5001522;28;20119;-70
2022/06/18 03:15:44;;;;;;;4.20;3.90;;;;;;;;;;4998785;28;20531;-69
2022/06/18 03:18:09;;;;;;;5.00;4.35;;;;;;;;;;4999663;28;20028;-69
2022/06/18 03:20:54;;;;;;;4.28;3.88;;;;;;;;;;4999743;28;20463;-69
2022/06/18 03:23:19;;;;;;;4.38;3.97;;;;;;;;;;5004039;28;20025;-69
2022/06/18 03:25:45;;;;;;;4.43;4.03;;;;;;;;;;5004840;28;20034;-71
2022/06/18 03:28:14;;;;;;;4.53;4.22;;;;;;;;;;5002557;28;20030;-70
2022/06/18 03:30:39;;;;;;;4.47;4.07;;;;;;;;;;4999329;28;20065;-68
2022/06/18 03:33:05;;;;;;;4.40;3.90;;;;;;;;;;5004403;28;20448;-69
2022/06/18 03:35:30;;;;;;;4.57;4.05;;;;;;;;;;5005410;28;20032;-70
2022/06/18 03:37:56;;;;;;;8.63;4.75;;;;;;;;;;5000636;28;20045;-69
2022/06/18 03:40:21;;;;;;;5.45;4.15;;;;;;;;;;4999340;28;20113;-68
2022/06/18 03:42:47;;;;;;;4.55;3.85;;;;;;;;;;5005356;28;20603;-69
2022/06/18 03:45:12;;;;;;;5.05;4.15;;;;;;;;;;5006650;28;20029;-68
2022/06/18 03:47:37;;;;;;;4.38;3.88;;;;;;;;;;5000460;28;20390;-68
2022/06/18 03:50:03;;;;;;;5.30;4.53;;;;;;;;;;4999793;28;20124;-69
2022/06/18 03:52:29;;;;;;;4.05;3.65;;;;;;;;;;4998149;28;20584;-71
2022/06/18 03:54:54;;;;;;;3.78;3.53;;;;;;;;;;4999266;28;20030;-71
2022/06/18 03:57:19;;;;;;;3.95;3.65;;;;;;;;;;5006812;28;20223;-70
2022/06/18 03:59:45;;;;;;;3.60;3.30;;;;;;;;;;5000344;28;20480;-69
2022/06/18 04:02:10;;;;;;;4.07;3.67;;;;;;;;;;4998317;28;20029;-70
2022/06/18 04:04:35;;;;;;;3.45;3.25;;;;;;;;;;4999846;28;20029;-68
2022/06/18 04:07:01;;;;;;;4.78;3.33;;;;;;;;;;5008055;28;20026;-71
2022/06/18 04:09:26;;;;;;;4.07;3.60;;;;;;;;;;5008618;28;20029;-68
2022/06/18 04:11:51;;;;;;;3.38;3.08;;;;;;;;;;5000629;28;20030;-68
2022/06/18 04:14:16;;;;;;;3.63;3.42;;;;;;;;;;5001712;28;20030;-70
2022/06/18 04:16:41;;;;;;;3.60;3.30;;;;;;;;;;5002718;28;20053;-70
2022/06/18 04:19:08;;;;;;;5.60;4.25;;;;;;;;;;5006834;28;20069;-70
2022/06/18 04:21:33;;;;;;;4.45;4.05;;;;;;;;;;5002048;28;20072;-70
2022/06/18 04:23:59;;;;;;;3.90;3.60;;;;;;;;;;5005021;28;20040;-70
2022/06/18 04:26:25;;;;;;;4.30;3.28;;;;;;;;;;5008827;28;20026;-70
2022/06/18 04:28:50;;;;;;;4.13;3.80;;;;;;;;;;5005970;28;20492;-71
2022/06/18 04:31:15;;;;;;;3.22;3.03;;;;;;;;;;5002216;28;20030;-70
2022/06/18 04:33:41;;;;;;;4.43;3.17;;;;;;;;;;5004616;28;20026;-70
2022/06/18 04:36:06;;;;;;;3.97;3.67;;;;;;;;;;5009180;28;20105;-68
2022/06/18 04:38:31;;;;;;;3.45;3.00;;;;;;;;;;5005436;28;20539;-70
2022/06/18 04:40:57;;;;;;;4.75;3.90;;;;;;;;;;5002700;28;20224;-69
2022/06/18 04:43:22;;;;;;;3.88;3.58;;;;;;;;;;5001544;28;20508;-69
2022/06/18 04:45:47;;;;;;;3.85;3.30;;;;;;;;;;5000900;28;20034;-68
2022/06/18 04:48:13;;;;;;;4.05;3.75;;;;;;;;;;5003375;28;20034;-69
2022/06/18 04:50:39;;;;;;;4.35;3.95;;;;;;;;;;5001659;28;20468;-69
2022/06/18 04:53:05;;;;;;;3.65;3.45;;;;;;;;;;5007345;28;20034;-69
2022/06/18 04:55:30;;;;;;;3.70;3.33;;;;;;;;;;5008470;28;20037;-70
2022/06/18 04:57:55;;;;;;;4.20;3.80;;;;;;;;;;5002770;28;20030;-69
2022/06/18 05:00:21;;;;;;;4.00;3.65;;;;;;;;;;5000922;28;20125;-69
2022/06/18 05:02:46;;;;;;;3.13;2.92;;;;;;;;;;5001364;28;20044;-69
2022/06/18 05:05:13;;;;;;;4.05;3.72;;;;;;;;;;5004030;28;20068;-70
2022/06/18 05:07:39;;;;;;;3.63;3.33;;;;;;;;;;5001593;28;20045;-70
2022/06/18 05:10:04;;;;;;;3.58;3.38;;;;;;;;;;5002234;28;20026;-70
2022/06/18 05:12:30;;;;;;;3.55;3.33;;;;;;;;;;5005532;28;20017;-69
2022/06/18 05:14:55;;;;;;;4.22;3.78;;;;;;;;;;5001900;28;20189;-70
2022/06/18 05:17:21;;;;;;;3.95;3.50;;;;;;;;;;4999494;28;20025;-70
2022/06/18 05:19:47;;;;;;;4.03;3.72;;;;;;;;;;4984834;28;20511;-70
2022/06/18 05:22:13;;;;;;;4.03;3.63;;;;;;;;;;5007251;28;20050;-70
2022/06/18 05:24:38;;;;;;;3.97;3.75;;;;;;;;;;4984329;28;20026;-70
2022/06/18 05:27:03;;;;;;;3.65;3.22;;;;;;;;;;5000821;28;20026;-69
2022/06/18 05:29:29;;;;;;;4.97;3.90;;;;;;;;;;5003126;28;20030;-70
2022/06/18 05:31:54;;;;;;;4.07;3.70;;;;;;;;;;4999572;28;20036;-69
2022/06/18 05:34:19;;;;;;;4.13;3.70;;;;;;;;;;4982826;28;20017;-68
2022/06/18 05:36:44;;;;;;;3.42;3.17;;;;;;;;;;5000449;28;20053;-69
2022/06/18 05:39:13;;;;;;;4.60;3.70;;;;;;;;;;5000712;28;20021;-69
2022/06/18 05:41:38;;;;;;;3.80;3.50;;;;;;;;;;5006206;28;20056;-70
2022/06/18 05:44:03;;;;;;;3.40;3.20;;;;;;;;;;5003028;28;20511;-69
2022/06/18 05:46:29;;;;;;;4.07;3.78;;;;;;;;;;5000413;28;20018;-69
2022/06/18 05:48:54;;;;;;;4.35;4.07;;;;;;;;;;4999898;28;20373;-70
2022/06/18 05:51:21;;;;;;;4.28;3.97;;;;;;;;;;5000578;28;20109;-70
2022/06/18 05:53:48;;;;;;;3.75;3.55;;;;;;;;;;4990613;28;20432;-69
2022/06/18 05:56:13;;;;;;;3.97;3.72;;;;;;;;;;5000097;28;20042;-72
2022/06/18 05:58:39;;;;;;;3.40;3.20;;;;;;;;;;5001033;28;20479;-70
2022/06/18 06:01:04;;;;;;;3.30;3.10;;;;;;;;;;5001696;28;20029;-70
2022/06/18 06:03:29;;;;;;;3.47;3.22;;;;;;;;;;5001807;28;20117;-69
2022/06/18 06:05:54;;;;;;;3.88;3.58;;;;;;;;;;5000343;28;20032;-70
2022/06/18 06:08:19;;;;;;;4.95;3.65;;;;;;;;;;5005800;28;20037;-70
2022/06/18 06:13:32;;;;;;;3.95;3.75;;;;;;;;;;4999780;28;20121;-70
2022/06/18 06:15:57;;;;;;;3.45;3.30;;;;;;;;;;5000593;28;20452;-70
2022/06/18 06:18:23;;;;;;;3.58;3.13;;;;;;;;;;5001865;28;20101;-70
2022/06/18 06:20:50;;;;;;;3.40;3.20;;;;;;;;;;4980205;28;20111;-70
2022/06/18 06:23:16;;;;;;;3.60;3.30;;;;;;;;;;4999835;28;20083;-70
2022/06/18 06:25:42;;;;;;;3.72;3.42;;;;;;;;;;5000803;28;20041;-70
2022/06/18 06:28:11;;;;;;;3.63;3.17;;;;;;;;;;5006504;28;20088;-71
2022/06/18 06:30:38;;;;;;;3.85;3.03;;;;;;;;;;4999071;28;20022;-70
2022/06/18 06:33:03;;;;;;;2.75;2.55;;;;;;;;;;4998179;28;20040;-70
2022/06/18 06:35:28;;;;;;;3.60;3.30;;;;;;;;;;4999546;28;20030;-71
2022/06/18 06:37:54;;;;;;;3.42;3.20;;;;;;;;;;5008167;28;20460;-71
2022/06/18 06:40:19;;;;;;;3.58;3.38;;;;;;;;;;5004791;28;20040;-71
2022/06/18 06:42:46;;;;;;;2.78;2.60;;;;;;;;;;4999659;28;20629;-70
2022/06/18 06:45:12;;;;;;;3.00;2.70;;;;;;;;;;5002721;28;20475;-73
2022/06/18 06:47:37;;;;;;;4.80;4.40;;;;;;;;;;5006158;28;20076;-67
2022/06/18 06:50:03;;;;;;;5.25;3.53;;;;;;;;;;5001413;28;20034;-69
2022/06/18 06:52:29;;;;;;;4.65;4.18;;;;;;;;;;4999311;28;20498;-67
2022/06/18 06:57:21;;;;;;;5.60;3.85;;;;;;;;;;5003768;28;20116;-69
2022/06/18 06:57:39;;;;;;;;;;;;;;;;;;5006526;28;20080;-67
2022/06/18 07:00:05;;;;;;;2.95;2.67;;;;;;;;;;5001899;28;19913;-69
2022/06/18 07:02:30;;;;;;;3.55;3.35;;;;;;;;;;4998928;28;20022;-69
2022/06/18 07:04:55;;;;;;;3.65;3.20;;;;;;;;;;4997947;28;20042;-70
2022/06/18 07:07:20;;;;;;;3.50;3.17;;;;;;;;;;4998891;28;20064;-69
2022/06/18 07:09:46;;;;;;;3.22;2.67;;;;;;;;;;4998142;28;20165;-70
2022/06/18 07:12:11;;;;;;;2.95;2.75;;;;;;;;;;5002951;28;20096;-70
2022/06/18 07:14:37;;;;;;;3.25;3.05;;;;;;;;;;4999826;28;20061;-73
2022/06/18 07:17:02;;;;;;;3.33;3.08;;;;;;;;;;4998948;28;20028;-72
2022/06/18 07:19:27;;;;;;;3.70;2.97;;;;;;;;;;4986281;28;20028;-71
2022/06/18 07:21:53;;;;;;;4.22;3.85;;;;;;;;;;5005285;28;20109;-70
2022/06/18 07:24:19;;;;;;;3.75;3.10;;;;;;;;;;4999195;28;20061;-68
2022/06/18 07:26:44;;;;;;;2.30;2.20;;;;;;;;;;5001412;28;20033;-62
2022/06/18 07:29:09;;;;;;;3.10;2.90;;;;;;;;;;5004628;28;20045;-61
2022/06/18 07:31:35;;;;;;;2.40;2.20;;;;;;;;;;5003643;28;20602;-65
2022/06/18 07:34:01;;;;;;;2.72;2.53;;;;;;;;;;4997659;28;20033;-65
2022/06/18 07:36:26;;;;;;;2.38;2.28;;;;;;;;;;5000340;28;20313;-68
2022/06/18 07:38:52;;;;;;;2.17;2.08;;;;;;;;;;5005715;28;20052;-65
2022/06/18 07:41:19;;;;;;;2.95;2.85;;;;;;;;;;4999078;28;20018;-66
2022/06/18 07:43:47;;;;;;;2.55;2.40;;;;;;;;;;4999762;28;20058;-65
2022/06/18 07:46:12;;;;;;;3.35;3.08;;;;;;;;;;5004366;28;20476;-65
2022/06/18 07:48:41;;;;;;;3.08;2.88;;;;;;;;;;5008208;28;20080;-65
2022/06/18 07:51:07;;;;;;;2.42;2.33;;;;;;;;;;5003736;28;20512;-65
2022/06/18 07:53:33;;;;;;;3.00;2.75;;;;;;;;;;5000272;28;20041;-64
2022/06/18 07:55:58;;;;;;;2.60;2.42;;;;;;;;;;5006067;28;20464;-65
2022/06/18 07:58:26;;;;;;;2.75;2.55;;;;;;;;;;4993936;28;20076;-67
2022/06/18 08:00:52;;;;;;;3.05;2.85;;;;;;;;;;5004353;28;20040;-66
2022/06/18 08:03:18;;;;;;;2.92;2.72;;;;;;;;;;5001855;28;20464;-66
2022/06/18 08:05:43;;;;;;;3.20;2.72;;;;;;;;;;4990381;28;20029;-67
2022/06/18 08:08:08;;;;;;;3.00;2.65;;;;;;;;;;5007592;28;20434;-66
2022/06/18 08:10:34;;;;;;;2.65;2.55;;;;;;;;;;5003393;28;20098;-66
2022/06/18 08:13:00;;;;;;;2.67;2.35;;;;;;;;;;5001810;28;20124;-66
2022/06/18 08:15:25;;;;;;;2.65;2.55;;;;;;;;;;5009246;28;20120;-65
2022/06/18 08:17:50;;;;;;;2.10;2.00;;;;;;;;;;5008451;28;20464;-65
2022/06/18 08:20:16;;;;;;;3.20;3.00;;;;;;;;;;5002567;28;20022;-65
2022/06/18 08:22:43;;;;;;;2.70;2.60;;;;;;;;;;5002513;28;20022;-66
2022/06/18 08:25:10;;;;;;;2.80;2.63;;;;;;;;;;5002747;28;20053;-66
2022/06/18 08:27:35;;;;;;;3.00;2.80;;;;;;;;;;5002037;28;20038;-66
2022/06/18 08:30:01;;;;;;;3.55;3.35;;;;;;;;;;4984582;28;20032;-65
2022/06/18 08:32:26;;;;;;;3.85;2.45;;;;;;;;;;5002281;28;20285;-66
2022/06/18 08:34:51;;;;;;;2.45;2.33;;;;;;;;;;5008948;28;20029;-66
2022/06/18 08:37:17;;;;;;;2.60;2.40;;;;;;;;;;5007598;28;20024;-65
2022/06/18 08:39:42;;;;;;;3.45;3.17;;;;;;;;;;4999242;28;20033;-66
2022/06/18 08:42:16;;;;;;;2.40;2.30;;;;;;;;;;5000210;28;20033;-67
2022/06/18 08:45:00;;;;;;;4.15;2.50;;;;;;;;;;5001857;28;20053;-65
2022/06/18 08:47:31;;;;;;;2.88;2.78;;;;;;;;;;5005229;28;20041;-65
2022/06/18 08:50:09;;;;;;;3.58;3.22;;;;;;;;;;5001019;28;20070;-65
2022/06/18 08:52:52;;;;;;;3.10;2.90;;;;;;;;;;5004631;28;20026;-65
2022/06/18 08:55:18;;;;;;;3.20;3.00;;;;;;;;;;5005197;28;20030;-67
2022/06/18 08:57:49;;;;;;;3.58;2.97;;;;;;;;;;5002715;28;20065;-66
2022/06/18 09:00:21;;;;;;;3.75;2.90;;;;;;;;;;5001320;28;20934;-73
2022/06/18 09:02:46;;;;;;;5.93;3.10;;;;;;;;;;5009171;28;20075;-72
2022/06/18 09:05:22;;;;;;;3.42;3.22;;;;;;;;;;5005169;28;20037;-69
2022/06/18 09:07:54;;;;;;;4.10;2.95;;;;;;;;;;5003667;28;20064;-71
2022/06/18 09:10:37;;;;;;;4.32;2.95;;;;;;;;;;5002162;28;20109;-74
2022/06/18 09:13:06;;;;;;;2.95;2.78;;;;;;;;;;5006347;28;20384;-72
2022/06/18 09:15:36;;;;;;;4.38;3.08;;;;;;;;;;5004921;28;20125;-70
2022/06/18 09:18:09;;;;;;;3.83;3.38;;;;;;;;;;5001552;28;20025;-70
2022/06/18 09:20:37;;;;;;;3.25;3.05;;;;;;;;;;5001468;28;20044;-69
2022/06/18 09:23:05;;;;;;;3.53;3.20;;;;;;;;;;5000787;28;20109;-69
2022/06/18 09:25:33;;;;;;;3.70;3.50;;;;;;;;;;5005837;28;20169;-70
2022/06/18 09:28:03;;;;;;;3.10;2.90;;;;;;;;;;5007562;28;20060;-70
2022/06/18 09:30:28;;;;;;;3.47;3.17;;;;;;;;;;5001808;28;20157;-68
2022/06/18 09:32:57;;;;;;;3.78;3.58;;;;;;;;;;5001278;28;20062;-74
2022/06/18 09:35:22;;;;;;;3.35;3.15;;;;;;;;;;5001844;28;20030;-69
2022/06/18 09:37:51;;;;;;;3.35;3.15;;;;;;;;;;5007865;28;20022;-70
2022/06/18 09:40:20;;;;;;;3.25;3.08;;;;;;;;;;5000276;28;20494;-69
2022/06/18 09:42:49;;;;;;;3.20;2.90;;;;;;;;;;5000346;28;20298;-70
2022/06/18 09:45:19;;;;;;;3.28;3.08;;;;;;;;;;5000905;28;20037;-71
2022/06/18 09:47:46;;;;;;;3.33;3.08;;;;;;;;;;5000700;28;20029;-68
2022/06/18 09:50:13;;;;;;;3.70;3.50;;;;;;;;;;5001243;28;20018;-70
2022/06/18 09:52:39;;;;;;;3.28;2.97;;;;;;;;;;5002661;28;20506;-71
2022/06/18 09:55:17;;;;;;;3.42;3.13;;;;;;;;;;5007946;28;20029;-64
2022/06/18 09:57:44;;;;;;;3.58;3.38;;;;;;;;;;5005352;28;20021;-69
2022/06/18 10:00:13;;;;;;;3.08;2.67;;;;;;;;;;5001273;28;20032;-68
2022/06/18 10:02:42;;;;;;;3.50;3.17;;;;;;;;;;5000537;28;20081;-73
2022/06/18 10:07:57;;;;;;;3.25;3.05;;;;;;;;;;4998489;28;20543;-64
2022/06/18 10:10:25;;;;;;;6.05;3.75;;;;;;;;;;4999164;28;20029;-68
2022/06/18 10:12:56;;;;;;;3.28;3.05;;;;;;;;;;5003853;28;20045;-70
2022/06/18 10:15:23;;;;;;;3.53;3.33;;;;;;;;;;5000771;28;20034;-70
2022/06/18 10:18:00;;;;;;;2.90;2.70;;;;;;;;;;5000290;28;20080;-69
2022/06/18 10:20:26;;;;;;;3.72;3.53;;;;;;;;;;5001902;28;20030;-71
2022/06/18 10:23:10;;;;;;;4.00;3.70;;;;;;;;;;5006917;28;20376;-70
2022/06/18 10:25:43;;;;;;;3.22;3.13;;;;;;;;;;5005616;28;20037;-75
2022/06/18 10:28:15;;;;;;;3.28;3.13;;;;;;;;;;5001411;28;20447;-72
2022/06/18 10:30:48;;;;;;;3.97;3.67;;;;;;;;;;5000180;28;20034;-71
2022/06/18 10:33:26;;;;;;;3.80;3.33;;;;;;;;;;5006632;28;20036;-66
2022/06/18 10:36:00;;;;;;;4.28;3.83;;;;;;;;;;5002997;28;20061;-74
2022/06/18 10:38:55;;;;;;;3.70;3.50;;;;;;;;;;5000558;28;20534;-73
2022/06/18 10:41:22;;;;;;;3.23;3.07;;;;;;;;;;4991014;28;20506;-72
2022/06/18 10:43:57;;;;;;;3.83;3.53;;;;;;;;;;5006400;28;20108;-74
2022/06/18 10:46:23;;;;;;;3.97;3.67;;;;;;;;;;5000796;28;20096;-73
2022/06/18 10:49:06;;;;;;;3.95;3.65;;;;;;;;;;5001141;28;20694;-73
2022/06/18 10:51:46;;;;;;;3.63;3.33;;;;;;;;;;4999839;28;20596;-75
2022/06/18 10:54:12;;;;;;;3.75;3.45;;;;;;;;;;5004040;28;20531;-66
2022/06/18 10:56:45;;;;;;;2.95;2.75;;;;;;;;;;5000979;28;20045;-67
2022/06/18 10:59:10;;;;;;;5.50;3.13;;;;;;;;;;5001315;28;20049;-71
2022/06/18 11:01:38;;;;;;;4.18;3.88;;;;;;;;;;5000636;28;20030;-69
2022/06/18 11:04:05;;;;;;;3.95;3.38;;;;;;;;;;5000133;28;20412;-70
2022/06/18 11:06:30;;;;;;;4.28;3.88;;;;;;;;;;4999698;28;20034;-72
2022/06/18 11:08:57;;;;;;;4.25;3.45;;;;;;;;;;5005494;28;20022;-63
2022/06/18 11:11:25;;;;;;;3.60;3.40;;;;;;;;;;5005188;28;20133;-64
2022/06/18 11:13:50;;;;;;;4.55;3.05;;;;;;;;;;4999202;28;20496;-62
2022/06/18 11:16:28;;;;;;;5.53;5.03;;;;;;;;;;5002182;28;20179;-62
2022/06/18 11:18:55;;;;;;;3.85;3.63;;;;;;;;;;5004754;28;20030;-62
2022/06/18 11:21:20;;;;;;;4.00;3.80;;;;;;;;;;5009511;28;20022;-62
2022/06/18 11:23:53;;;;;;;3.90;3.53;;;;;;;;;;5002254;28;20037;-63
2022/06/18 11:26:23;;;;;;;4.32;3.22;;;;;;;;;;4983999;28;20511;-62
2022/06/18 11:28:49;;;;;;;3.72;3.10;;;;;;;;;;5002267;28;20037;-62
2022/06/18 11:31:26;;;;;;;2.90;2.78;;;;;;;;;;5004361;28;20100;-63
2022/06/18 11:34:02;;;;;;;5.22;3.97;;;;;;;;;;5002185;28;20037;-62
2022/06/18 11:36:36;;;;;;;3.78;3.15;;;;;;;;;;5001546;28;20057;-62
2022/06/18 11:39:03;;;;;;;3.92;3.67;;;;;;;;;;5003723;28;20030;-62
2022/06/18 11:41:31;;;;;;;3.58;3.42;;;;;;;;;;5003241;28;20484;-62
2022/06/18 11:44:05;;;;;;;3.88;3.65;;;;;;;;;;5000126;28;20143;-62
2022/06/18 11:46:33;;;;;;;3.92;3.65;;;;;;;;;;5002290;28;20046;-62
2022/06/18 11:48:58;;;;;;;3.30;3.10;;;;;;;;;;5002652;28;20494;-62
2022/06/18 11:51:36;;;;;;;3.53;3.28;;;;;;;;;;5001723;28;20418;-62
2022/06/18 11:54:09;;;;;;;4.05;3.67;;;;;;;;;;5003359;28;20025;-62
2022/06/18 11:56:37;;;;;;;3.80;3.50;;;;;;;;;;5005485;28;20164;-62
2022/06/18 11:59:09;;;;;;;3.85;3.55;;;;;;;;;;5002201;28;20526;-62
2022/06/18 12:01:37;;;;;;;7.22;3.50;;;;;;;;;;5003289;28;20034;-62
2022/06/18 12:04:05;;;;;;;3.80;3.45;;;;;;;;;;5004634;28;20080;-63
2022/06/18 12:06:39;;;;;;;3.67;3.38;;;;;;;;;;5008792;28;20049;-62
2022/06/18 12:09:05;;;;;;;3.13;3.03;;;;;;;;;;5003088;28;20036;-62
2022/06/18 12:11:47;;;;;;;3.80;3.50;;;;;;;;;;5002223;28;20029;-62
2022/06/18 12:14:32;;;;;;;3.13;3.03;;;;;;;;;;5002564;28;20057;-62
2022/06/18 12:16:58;;;;;;;3.72;3.55;;;;;;;;;;5005296;28;20033;-62
2022/06/18 12:19:23;;;;;;;4.50;4.30;;;;;;;;;;4998854;28;20036;-63
2022/06/18 12:21:51;;;;;;;3.72;3.53;;;;;;;;;;5001531;28;20585;-63
2022/06/18 12:24:20;;;;;;;3.95;3.65;;;;;;;;;;5004338;28;20065;-64
2022/06/18 12:26:51;;;;;;;3.67;3.45;;;;;;;;;;5006901;28;20042;-64
2022/06/18 12:29:35;;;;;;;4.18;3.97;;;;;;;;;;5001355;28;20145;-64
2022/06/18 12:32:15;;;;;;;3.92;3.60;;;;;;;;;;4999847;28;20040;-63
2022/06/18 12:34:50;;;;;;;3.75;3.45;;;;;;;;;;5001987;28;20034;-62
2022/06/18 12:37:19;;;;;;;3.53;3.33;;;;;;;;;;5006182;28;20037;-62
2022/06/18 12:39:47;;;;;;;3.85;3.65;;;;;;;;;;5001803;28;20475;-62
2022/06/18 12:42:18;;;;;;;3.10;2.90;;;;;;;;;;5001512;28;20088;-63
2022/06/18 12:44:52;;;;;;;3.60;3.40;;;;;;;;;;5001051;28;20050;-62
2022/06/18 12:47:20;;;;;;;;;;;;;;;;;;5001779;28;20159;-62
2022/06/18 12:49:45;;;;;;;3.70;3.50;;;;;;;;;;5001784;28;20401;-62
2022/06/18 12:52:21;;;;;;;3.50;3.20;;;;;;;;;;5003765;28;20026;-63
2022/06/18 12:54:46;;;;;;;3.70;3.60;;;;;;;;;;5001431;28;20373;-64
2022/06/18 12:57:24;;;;;;;3.97;3.63;;;;;;;;;;5001266;28;20104;-63
2022/06/18 13:00:00;;;;;;;3.33;3.13;;;;;;;;;;5002176;28;20070;-63
2022/06/18 13:02:25;;;;;;;3.47;3.38;;;;;;;;;;5007859;28;20510;-63
2022/06/18 13:05:09;;;;;;;3.42;3.28;;;;;;;;;;5007629;28;20038;-63
2022/06/18 13:07:46;;;;;;;3.88;3.67;;;;;;;;;;5001044;28;20022;-65
2022/06/18 13:10:19;;;;;;;4.05;3.78;;;;;;;;;;5001875;28;20799;-63
2022/06/18 13:12:54;;;;;;;4.20;4.00;;;;;;;;;;5007555;28;20049;-63
2022/06/18 13:15:28;;;;;;;3.85;3.65;;;;;;;;;;5004602;28;20032;-65
2022/06/18 13:17:56;;;;;;;3.78;3.58;;;;;;;;;;5001681;28;20395;-63
2022/06/18 13:20:24;;;;;;;4.15;3.95;;;;;;;;;;5005631;28;20397;-64
2022/06/18 13:22:49;;;;;;;3.53;3.33;;;;;;;;;;5006406;28;20037;-63
2022/06/18 13:28:23;;;;;;;4.15;3.85;;;;;;;;;;5000486;28;20036;-64
2022/06/18 13:30:51;;;;;;;5.07;3.55;;;;;;;;;;5007947;28;20030;-59
2022/06/18 13:33:39;;;;;;;3.83;3.72;;;;;;;;;;5006469;28;20030;-61
2022/06/18 13:36:14;;;;;;;3.63;3.40;;;;;;;;;;5000657;28;20026;-64
2022/06/18 13:38:39;;;;;;;;;;;;;;;;;;5004481;28;20066;-65
2022/06/18 13:41:10;;;;;;;5.10;4.75;;;;;;;;;;5006819;28;19963;-63
2022/06/18 13:43:44;;;;;;;4.38;4.07;;;;;;;;;;5002289;28;20050;-64
2022/06/18 13:46:28;;;;;;;4.20;3.90;;;;;;;;;;4999949;28;20085;-63
2022/06/18 13:49:03;;;;;;;5.40;3.78;;;;;;;;;;5007471;28;20032;-63
2022/06/18 13:51:30;;;;;;;4.22;3.92;;;;;;;;;;5006670;28;20029;-63
2022/06/18 13:54:05;;;;;;;4.22;3.35;;;;;;;;;;5000003;28;20014;-63
2022/06/18 13:56:30;;;;;;;4.53;3.80;;;;;;;;;;5000325;28;20112;-64
2022/06/18 13:59:00;;;;;;;3.60;3.45;;;;;;;;;;5000473;28;20033;-62
2022/06/18 14:01:26;;;;;;;3.65;3.45;;;;;;;;;;5001642;28;20025;-64
2022/06/18 14:04:11;;;;;;;4.13;3.83;;;;;;;;;;4999667;28;20036;-64
2022/06/18 14:06:45;;;;;;;3.72;3.25;;;;;;;;;;4968966;28;20050;-64
2022/06/18 14:09:11;;;;;;;;;;;;;;;;;;5000739;28;20061;-63
2022/06/18 14:11:38;;;;;;;4.10;3.80;;;;;;;;;;5000537;28;20020;-63
2022/06/18 14:14:05;;;;;;;4.28;3.97;;;;;;;;;;5005653;28;20029;-64
2022/06/18 14:16:38;;;;;;;3.95;3.72;;;;;;;;;;5006115;28;20033;-64
2022/06/18 14:19:23;;;;;;;4.13;3.92;;;;;;;;;;5000102;28;20132;-66
2022/06/18 14:21:59;;;;;;;5.35;3.38;;;;;;;;;;4998973;28;20026;-65
2022/06/18 14:24:35;;;;;;;4.15;3.78;;;;;;;;;;4999960;28;20022;-65
2022/06/18 14:27:01;;;;;;;3.47;3.38;;;;;;;;;;5006632;28;20025;-65
2022/06/18 14:29:37;;;;;;;4.13;3.83;;;;;;;;;;5004365;28;20026;-65
2022/06/18 14:32:25;;;;;;;4.22;3.92;;;;;;;;;;5000029;28;20060;-66
2022/06/18 14:35:11;;;;;;;3.38;3.17;;;;;;;;;;4997190;28;20152;-65
2022/06/18 14:37:42;;;;;;;4.45;3.90;;;;;;;;;;5005009;28;20121;-67
2022/06/18 14:40:09;;;;;;;3.72;3.47;;;;;;;;;;4975286;28;20069;-66
2022/06/18 14:42:37;;;;;;;3.70;3.50;;;;;;;;;;5000627;28;20030;-64
2022/06/18 14:45:20;;;;;;;3.90;3.70;;;;;;;;;;5006704;28;20382;-65
2022/06/18 14:47:49;;;;;;;3.33;3.10;;;;;;;;;;5006796;28;20044;-65
2022/06/18 14:50:31;;;;;;;3.33;3.13;;;;;;;;;;4999717;28;20068;-65
2022/06/18 14:53:16;;;;;;;3.45;3.25;;;;;;;;;;5000483;28;20033;-64
2022/06/18 14:55:41;;;;;;;;;;;;;;;;;;5006877;28;20065;-64
2022/06/18 14:58:25;;;;;;;3.78;3.58;;;;;;;;;;5003963;28;20431;-64
2022/06/18 15:01:00;;;;;;;4.43;3.15;;;;;;;;;;4999856;28;20026;-65
2022/06/18 15:03:25;;;;;;;3.53;3.33;;;;;;;;;;5004414;28;20025;-65
2022/06/18 15:05:59;;;;;;;3.13;3.03;;;;;;;;;;5005110;28;20444;-64
2022/06/18 15:08:24;;;;;;;4.00;3.70;;;;;;;;;;5000828;28;20037;-65